Preludeux — FGA7662 — position and weather

sailwx.info

Track history (hours):
 
Tides and Currents Weather Stations Pressure Air Temp Water Temp Dewpoint Dewpoint Depression Visibility Wind Speed Wind Dir Waves Ship Positions

Preludeux

Last reported at 2018-Jun-20 06:54 UTC. Time now 2018-Jun-20 07:22 UTC.
Position N 48°29' W 004°51'.

Length 14 m.

Type: Sailing vessel. MMSI: 227537380.

Date/timePositionNaut miles runAvg speedWind from/ knotsBaromVisibWave heightAir tempDewpointWater temp
2018-Jun-20 06:54N 48°29' W 004°51'2 5.1
2018-Jun-20 06:29N 48°31' W 004°51'108 5.7
2018-Jun-19 11:24N 49°38' W 002°42'1 2.7
2018-Jun-19 10:57N 49°39' W 002°41'3 2.8
2018-Jun-19 10:00N 49°41' W 002°38'2 3.3
2018-Jun-19 09:18N 49°42' W 002°34'2 4.3
2018-Jun-19 08:53N 49°42' W 002°32'3 5.3
2018-Jun-19 08:15N 49°44' W 002°27'2 6.4
2018-Jun-19 07:53N 49°45' W 002°24'4 7.3
2018-Jun-19 07:19N 49°46' W 002°18'3 8.0
2018-Jun-19 06:54N 49°46' W 002°13'70 5.0
2018-Jun-18 16:55N 49°33' W 000°27'3 6.7
2018-Jun-18 16:30N 49°31' W 000°23'3 6.6
2018-Jun-18 15:59N 49°30' W 000°18'3 5.8
2018-Jun-18 15:30N 49°29' W 000°14'3 5.6
2018-Jun-18 14:58N 49°28' W 000°10'2 5.2
2018-Jun-18 14:30N 49°27' W 000°06'2 3.3
2018-Jun-18 14:00N 49°28' W 000°04'2 4.5
2018-Jun-18 13:28N 49°30' W 000°02'1 3.1
2018-Jun-18 13:00N 49°31' W 000°00'1 2.0
2018-Jun-18 12:30N 49°30' E 000°01'2 4.1
2018-Jun-18 12:00N 49°30' E 000°04'1 1.3
2018-Jun-18 11:17N 49°29' E 000°06'0 0.0
2018-Jun-18 10:17N 49°29' E 000°06'0 0.0
2018-Jun-17 11:38N 49°29' E 000°06'0 0.0
2018-Jun-17 11:20N 49°29' E 000°06'0 0.0
2018-Jun-17 10:59N 49°29' E 000°06'0 0.0
2018-Jun-17 10:26N 49°29' E 000°06'0 0.0
2018-Jun-17 09:59N 49°29' E 000°06'0 0.0
2018-Jun-17 09:26N 49°29' E 000°06'0 0.0
2018-Jun-17 08:59N 49°29' E 000°06'0 0.0
2018-Jun-17 08:29N 49°29' E 000°06'0 0.0
2018-Jun-17 07:59N 49°29' E 000°06'0 0.0
2018-Jun-17 07:29N 49°29' E 000°06'0 0.0
2018-Jun-17 06:56N 49°29' E 000°06'0 0.0
2018-Jun-17 06:29N 49°29' E 000°06'0 0.0
2018-Jun-17 05:56N 49°29' E 000°06'0 0.0
2018-Jun-17 05:29N 49°29' E 000°06'0 0.0
2018-Jun-17 04:56N 49°29' E 000°06'0 0.0
2018-Jun-17 04:26N 49°29' E 000°06'0 0.0
2018-Jun-17 03:59N 49°29' E 000°06'0 0.0
2018-Jun-17 03:26N 49°29' E 000°06'0 0.0
2018-Jun-17 02:59N 49°29' E 000°06'0 0.0
2018-Jun-17 02:17N 49°29' E 000°06'0 0.0
2018-Jun-17 01:59N 49°29' E 000°06'0 0.0
2018-Jun-17 01:26N 49°29' E 000°06'0 0.0
2018-Jun-17 00:59N 49°29' E 000°06'0 0.0
2018-Jun-17 00:29N 49°29' E 000°06'0 0.0
2018-Jun-16 23:59N 49°29' E 000°06'0 0.0
2018-Jun-16 23:29N 49°29' E 000°06'0 0.0
2018-Jun-16 22:59N 49°29' E 000°06'0 0.0
2018-Jun-16 22:29N 49°29' E 000°06'0 0.0
2018-Jun-16 21:59N 49°29' E 000°06'0 0.0
2018-Jun-16 21:29N 49°29' E 000°06'0 0.0
2018-Jun-16 20:59N 49°29' E 000°06'0 0.0
2018-Jun-16 20:29N 49°29' E 000°06'0 0.0
2018-Jun-16 19:56N 49°29' E 000°06'0 0.0
2018-Jun-16 19:29N 49°29' E 000°06'0 0.0
2018-Jun-16 18:47N 49°29' E 000°06'0 0.0
2018-Jun-16 18:20N 49°29' E 000°06'0 0.0
2018-Jun-16 17:59N 49°29' E 000°06'0 0.0
2018-Jun-16 17:23N 49°29' E 000°06'0 0.0
2018-Jun-16 16:59N 49°29' E 000°06'0 0.0
2018-Jun-16 16:29N 49°29' E 000°06'0 0.0
2018-Jun-16 15:44N 49°29' E 000°06'0 0.0
2018-Jun-16 15:14N 49°29' E 000°06'0 0.0
2018-Jun-16 14:08N 49°29' E 000°06'0 0.0
2018-Jun-16 13:56N 49°29' E 000°06'0 0.0
2018-Jun-16 13:29N 49°29' E 000°06'0 0.0
2018-Jun-16 11:53N 49°29' E 000°06'0 0.0
2018-Jun-16 11:14N 49°29' E 000°06'0 0.0
2018-Jun-16 10:59N 49°29' E 000°06'  
2018-Jun-14 01:40N 49°29' E 000°06'0 0.0
2018-Jun-13 21:03N 49°29' E 000°06'0 0.0
2018-Jun-13 20:58N 49°29' E 000°06'0 0.0
2018-Jun-13 20:07N 49°29' E 000°06'0 0.1
2018-Jun-13 20:00N 49°29' E 000°06'1 2.3
2018-Jun-13 19:30N 49°29' E 000°07'0 0.3
2018-Jun-13 18:59N 49°29' E 000°08'0 0.0
2018-Jun-13 18:26N 49°29' E 000°08'0 0.0
2018-Jun-13 17:59N 49°29' E 000°08'0 0.0
2018-Jun-13 17:29N 49°29' E 000°08'0 0.0
2018-Jun-13 16:53N 49°29' E 000°08'0 0.0
2018-Jun-13 16:29N 49°29' E 000°08'0 0.0
2018-Jun-13 15:59N 49°29' E 000°08'0 0.0
2018-Jun-13 15:29N 49°29' E 000°08'0 0.0
2018-Jun-13 14:59N 49°29' E 000°08'0 0.0
2018-Jun-13 14:29N 49°29' E 000°08'  
Track history (hours):
 
Tides and Currents Weather Stations Pressure Air Temp Water Temp Dewpoint Dewpoint Depression Visibility Wind Speed Wind Dir Waves Ship Positions

Preludeux

Last reported at 2018-Jun-20 06:54 UTC. Time now 2018-Jun-20 07:22 UTC.
Position N 48°29' W 004°51'.

Length 14 m.

Type: Sailing vessel. MMSI: 227537380.

Date/timePositionNaut miles runAvg speedWind from/ knotsBaromVisibWave heightAir tempDewpointWater temp
2018-Jun-20 06:54N 48°29' W 004°51'2 5.1
2018-Jun-20 06:29N 48°31' W 004°51'108 5.7
2018-Jun-19 11:24N 49°38' W 002°42'1 2.7
2018-Jun-19 10:57N 49°39' W 002°41'3 2.8
2018-Jun-19 10:00N 49°41' W 002°38'2 3.3
2018-Jun-19 09:18N 49°42' W 002°34'2 4.3
2018-Jun-19 08:53N 49°42' W 002°32'3 5.3
2018-Jun-19 08:15N 49°44' W 002°27'2 6.4
2018-Jun-19 07:53N 49°45' W 002°24'4 7.3
2018-Jun-19 07:19N 49°46' W 002°18'3 8.0
2018-Jun-19 06:54N 49°46' W 002°13'70 5.0
2018-Jun-18 16:55N 49°33' W 000°27'3 6.7
2018-Jun-18 16:30N 49°31' W 000°23'3 6.6
2018-Jun-18 15:59N 49°30' W 000°18'3 5.8
2018-Jun-18 15:30N 49°29' W 000°14'3 5.6
2018-Jun-18 14:58N 49°28' W 000°10'2 5.2
2018-Jun-18 14:30N 49°27' W 000°06'2 3.3
2018-Jun-18 14:00N 49°28' W 000°04'2 4.5
2018-Jun-18 13:28N 49°30' W 000°02'1 3.1
2018-Jun-18 13:00N 49°31' W 000°00'1 2.0
2018-Jun-18 12:30N 49°30' E 000°01'2 4.1
2018-Jun-18 12:00N 49°30' E 000°04'1 1.3
2018-Jun-18 11:17N 49°29' E 000°06'0 0.0
2018-Jun-18 10:17N 49°29' E 000°06'0 0.0
2018-Jun-17 11:38N 49°29' E 000°06'0 0.0
2018-Jun-17 11:20N 49°29' E 000°06'0 0.0
2018-Jun-17 10:59N 49°29' E 000°06'0 0.0
2018-Jun-17 10:26N 49°29' E 000°06'0 0.0
2018-Jun-17 09:59N 49°29' E 000°06'0 0.0
2018-Jun-17 09:26N 49°29' E 000°06'0 0.0
2018-Jun-17 08:59N 49°29' E 000°06'0 0.0
2018-Jun-17 08:29N 49°29' E 000°06'0 0.0
2018-Jun-17 07:59N 49°29' E 000°06'0 0.0
2018-Jun-17 07:29N 49°29' E 000°06'0 0.0
2018-Jun-17 06:56N 49°29' E 000°06'0 0.0
2018-Jun-17 06:29N 49°29' E 000°06'0 0.0
2018-Jun-17 05:56N 49°29' E 000°06'0 0.0
2018-Jun-17 05:29N 49°29' E 000°06'0 0.0
2018-Jun-17 04:56N 49°29' E 000°06'0 0.0
2018-Jun-17 04:26N 49°29' E 000°06'0 0.0
2018-Jun-17 03:59N 49°29' E 000°06'0 0.0
2018-Jun-17 03:26N 49°29' E 000°06'0 0.0
2018-Jun-17 02:59N 49°29' E 000°06'0 0.0
2018-Jun-17 02:17N 49°29' E 000°06'0 0.0
2018-Jun-17 01:59N 49°29' E 000°06'0 0.0
2018-Jun-17 01:26N 49°29' E 000°06'0 0.0
2018-Jun-17 00:59N 49°29' E 000°06'0 0.0
2018-Jun-17 00:29N 49°29' E 000°06'0 0.0
2018-Jun-16 23:59N 49°29' E 000°06'0 0.0
2018-Jun-16 23:29N 49°29' E 000°06'0 0.0
2018-Jun-16 22:59N 49°29' E 000°06'0 0.0
2018-Jun-16 22:29N 49°29' E 000°06'0 0.0
2018-Jun-16 21:59N 49°29' E 000°06'0 0.0
2018-Jun-16 21:29N 49°29' E 000°06'0 0.0
2018-Jun-16 20:59N 49°29' E 000°06'0 0.0
2018-Jun-16 20:29N 49°29' E 000°06'0 0.0
2018-Jun-16 19:56N 49°29' E 000°06'0 0.0
2018-Jun-16 19:29N 49°29' E 000°06'0 0.0
2018-Jun-16 18:47N 49°29' E 000°06'0 0.0
2018-Jun-16 18:20N 49°29' E 000°06'0 0.0
2018-Jun-16 17:59N 49°29' E 000°06'0 0.0
2018-Jun-16 17:23N 49°29' E 000°06'0 0.0
2018-Jun-16 16:59N 49°29' E 000°06'0 0.0
2018-Jun-16 16:29N 49°29' E 000°06'0 0.0
2018-Jun-16 15:44N 49°29' E 000°06'0 0.0
2018-Jun-16 15:14N 49°29' E 000°06'0 0.0
2018-Jun-16 14:08N 49°29' E 000°06'0 0.0
2018-Jun-16 13:56N 49°29' E 000°06'0 0.0
2018-Jun-16 13:29N 49°29' E 000°06'0 0.0
2018-Jun-16 11:53N 49°29' E 000°06'0 0.0
2018-Jun-16 11:14N 49°29' E 000°06'0 0.0
2018-Jun-16 10:59N 49°29' E 000°06'  
2018-Jun-14 01:40N 49°29' E 000°06'0 0.0
2018-Jun-13 21:03N 49°29' E 000°06'0 0.0
2018-Jun-13 20:58N 49°29' E 000°06'0 0.0
2018-Jun-13 20:07N 49°29' E 000°06'0 0.1
2018-Jun-13 20:00N 49°29' E 000°06'1 2.3
2018-Jun-13 19:30N 49°29' E 000°07'0 0.3
2018-Jun-13 18:59N 49°29' E 000°08'0 0.0
2018-Jun-13 18:26N 49°29' E 000°08'0 0.0
2018-Jun-13 17:59N 49°29' E 000°08'0 0.0
2018-Jun-13 17:29N 49°29' E 000°08'0 0.0
2018-Jun-13 16:53N 49°29' E 000°08'0 0.0
2018-Jun-13 16:29N 49°29' E 000°08'0 0.0
2018-Jun-13 15:59N 49°29' E 000°08'0 0.0
2018-Jun-13 15:29N 49°29' E 000°08'0 0.0
2018-Jun-13 14:59N 49°29' E 000°08'0 0.0
2018-Jun-13 14:29N 49°29' E 000°08'  

Dump ship's entire track history